createdAt,value
2018-04-16T00:00:21.520Z,18.00
2018-04-16T00:02:49.289Z,18.00
2018-04-16T00:05:17.052Z,17.90
2018-04-16T00:07:44.872Z,17.90
2018-04-16T00:10:12.652Z,18.00
2018-04-16T00:12:40.426Z,17.90
2018-04-16T00:15:08.237Z,17.80
2018-04-16T00:17:35.996Z,17.80
2018-04-16T00:20:03.794Z,17.80
2018-04-16T00:22:31.633Z,17.70
2018-04-16T00:24:59.410Z,17.70
2018-04-16T00:27:27.197Z,17.60
2018-04-16T00:29:55.013Z,17.60
2018-04-16T00:32:28.334Z,17.60
2018-04-16T00:48:31.869Z,17.40
2018-04-16T00:51:14.533Z,17.30
2018-04-16T00:53:59.777Z,17.30
2018-04-16T00:56:33.105Z,17.40
2018-04-16T00:59:06.741Z,17.30
2018-04-16T01:01:40.068Z,17.20
2018-04-16T01:04:13.628Z,17.20
2018-04-16T01:06:47.744Z,17.10
2018-04-16T01:09:21.424Z,17.10
2018-04-16T01:11:55.525Z,17.10
2018-04-16T01:14:29.725Z,17.10
2018-04-16T01:17:03.144Z,17.10
2018-04-16T01:19:37.385Z,17.20
2018-04-16T01:22:10.676Z,17.20
2018-04-16T01:24:44.199Z,17.10
2018-04-16T01:27:18.265Z,17.10
2018-04-16T01:29:52.434Z,17.10
2018-04-16T01:32:25.747Z,17.10
2018-04-16T01:34:59.130Z,17.20
2018-04-16T01:51:05.198Z,17.10
2018-04-16T01:53:38.751Z,17.10
2018-04-16T01:56:12.173Z,17.10
2018-04-16T01:58:46.451Z,17.10
2018-04-16T02:01:19.865Z,17.10
2018-04-16T02:03:53.349Z,17.10
2018-04-16T02:06:26.772Z,17.10
2018-04-16T02:09:00.809Z,17.10
2018-04-16T02:11:34.224Z,17.10
2018-04-16T02:14:08.377Z,17.00
2018-04-16T02:16:42.561Z,17.10
2018-04-16T02:19:15.775Z,17.00
2018-04-16T02:21:49.937Z,17.10
2018-04-16T02:24:24.162Z,17.10
2018-04-16T02:26:58.474Z,17.10
2018-04-16T02:29:31.817Z,17.00
2018-04-16T02:45:39.982Z,16.90
2018-04-16T02:48:13.248Z,16.90
2018-04-16T02:50:46.713Z,16.90
2018-04-16T02:53:29.360Z,16.90
2018-04-16T02:56:02.689Z,16.90
2018-04-16T02:58:49.899Z,16.80
2018-04-16T03:01:23.373Z,16.80
2018-04-16T03:03:56.677Z,16.70
2018-04-16T03:06:30.153Z,16.70
2018-04-16T03:09:04.213Z,16.60
2018-04-16T03:11:38.486Z,16.60
2018-04-16T03:14:11.827Z,16.60
2018-04-16T03:16:45.282Z,16.50
2018-04-16T03:19:18.652Z,16.40
2018-04-16T03:21:52.001Z,16.30
2018-04-16T03:24:26.097Z,16.40
2018-04-16T03:27:00.225Z,16.40
2018-04-16T03:29:33.744Z,16.40
2018-04-16T03:32:07.333Z,16.40
2018-04-16T03:34:40.725Z,16.40
2018-04-16T03:37:14.334Z,16.40
2018-04-16T03:39:47.858Z,16.40
2018-04-16T03:42:21.379Z,16.40
2018-04-16T03:58:18.543Z,16.10
2018-04-16T04:00:46.324Z,16.10
2018-04-16T04:03:14.075Z,16.00
2018-04-16T04:05:41.892Z,16.00
2018-04-16T04:08:09.692Z,15.90
2018-04-16T04:10:37.463Z,15.90
2018-04-16T04:13:05.325Z,15.90
2018-04-16T04:15:33.103Z,15.90
2018-04-16T04:18:00.887Z,15.90
2018-04-16T04:20:28.718Z,15.90
2018-04-16T04:23:08.354Z,15.80
2018-04-16T04:25:48.027Z,15.80
2018-04-16T04:28:27.633Z,15.70
2018-04-16T04:30:55.449Z,15.60
2018-04-16T04:33:23.226Z,15.50
2018-04-16T04:35:51.060Z,15.50
2018-04-16T04:38:18.878Z,15.50
2018-04-16T04:40:46.634Z,15.50
2018-04-16T04:43:14.404Z,15.40
2018-04-16T04:45:42.533Z,15.40
2018-04-16T04:48:10.297Z,15.40
2018-04-16T04:50:38.088Z,15.30
2018-04-16T04:53:05.896Z,15.30
2018-04-16T04:55:33.652Z,15.30
2018-04-16T04:58:01.437Z,15.30
2018-04-16T05:00:29.250Z,15.20
2018-04-16T05:02:57.013Z,15.30
2018-04-16T05:05:24.773Z,15.20
2018-04-16T05:07:52.596Z,15.30
2018-04-16T05:10:20.360Z,15.30
2018-04-16T05:12:48.113Z,15.20
2018-04-16T05:15:15.931Z,15.20
2018-04-16T05:17:43.687Z,15.20
2018-04-16T05:20:11.480Z,15.20
2018-04-16T05:22:39.303Z,15.20
2018-04-16T05:25:07.080Z,15.20
2018-04-16T05:27:34.855Z,15.20
2018-04-16T05:30:02.690Z,15.20
2018-04-16T05:32:30.471Z,15.10
2018-04-16T05:34:58.268Z,15.10
2018-04-16T05:37:26.101Z,15.10
2018-04-16T05:39:53.918Z,15.10
2018-04-16T05:42:22.583Z,15.10
2018-04-16T05:44:50.415Z,15.10
2018-04-16T05:47:18.252Z,15.10
2018-04-16T05:49:46.069Z,15.10
2018-04-16T05:52:13.919Z,15.20
2018-04-16T05:54:41.699Z,15.20
2018-04-16T05:57:09.487Z,15.30
2018-04-16T05:59:38.116Z,15.30
2018-04-16T06:02:07.501Z,15.30
2018-04-16T06:04:35.320Z,15.20
2018-04-16T06:07:04.011Z,15.20
2018-04-16T06:09:31.889Z,15.20
2018-04-16T06:11:59.735Z,15.30
2018-04-16T06:14:28.434Z,15.30
2018-04-16T06:16:56.301Z,15.30
2018-04-16T06:19:24.122Z,15.30
2018-04-16T06:21:52.051Z,15.30
2018-04-16T06:24:19.855Z,15.30
2018-04-16T06:26:47.684Z,15.40
2018-04-16T06:29:15.554Z,15.40
2018-04-16T06:31:43.324Z,15.50
2018-04-16T06:34:11.124Z,15.50
2018-04-16T06:36:39.864Z,15.60
2018-04-16T06:39:08.519Z,15.60
2018-04-16T06:41:36.383Z,15.60
2018-04-16T06:44:04.343Z,15.60
2018-04-16T06:46:32.173Z,15.70
2018-04-16T06:48:59.999Z,15.70
2018-04-16T06:51:27.883Z,15.80
2018-04-16T06:53:55.723Z,15.90
2018-04-16T06:56:23.550Z,16.00
2018-04-16T06:58:51.427Z,16.10
2018-04-16T07:01:19.232Z,16.10
2018-04-16T07:03:47.117Z,16.10
2018-04-16T07:06:15.000Z,16.00
2018-04-16T07:08:42.836Z,16.00
2018-04-16T07:11:10.623Z,16.00
2018-04-16T07:13:39.223Z,16.10
2018-04-16T07:16:07.041Z,16.10
2018-04-16T07:18:34.907Z,16.10
2018-04-16T07:21:02.748Z,16.20
2018-04-16T07:23:30.607Z,16.30
2018-04-16T07:25:58.384Z,16.30
2018-04-16T07:28:26.237Z,16.30
2018-04-16T07:30:54.169Z,16.30
2018-04-16T07:33:21.988Z,16.30
2018-04-16T07:35:49.888Z,16.30
2018-04-16T07:38:17.733Z,16.40
2018-04-16T07:40:45.570Z,16.40
2018-04-16T07:43:13.397Z,16.40
2018-04-16T07:45:42.233Z,16.40
2018-04-16T07:48:10.029Z,16.30
2018-04-16T07:50:38.001Z,16.10
2018-04-16T07:53:05.792Z,16.10
2018-04-16T07:55:33.590Z,16.10
2018-04-16T07:58:01.410Z,16.00
2018-04-16T08:00:29.202Z,16.00
2018-04-16T08:02:57.018Z,16.00
2018-04-16T08:05:25.609Z,15.90
2018-04-16T08:07:53.435Z,15.90
2018-04-16T08:10:22.006Z,15.90
2018-04-16T08:12:50.711Z,15.90
2018-04-16T08:15:19.282Z,16.00
2018-04-16T08:17:47.866Z,16.20
2018-04-16T08:20:15.721Z,16.20
2018-04-16T08:22:43.539Z,16.30
2018-04-16T08:25:11.368Z,16.40
2018-04-16T08:27:39.253Z,16.50
2018-04-16T08:30:07.142Z,16.50
2018-04-16T08:32:34.958Z,16.60
2018-04-16T08:35:02.845Z,16.70
2018-04-16T08:37:30.682Z,16.80
2018-04-16T08:39:58.549Z,16.90
2018-04-16T08:42:27.165Z,16.60
2018-04-16T08:44:55.000Z,16.60
2018-04-16T08:47:22.814Z,16.60
2018-04-16T08:49:50.894Z,16.60
2018-04-16T08:52:18.684Z,16.60
2018-04-16T08:54:46.536Z,16.70
2018-04-16T08:57:14.409Z,16.70
2018-04-16T08:59:43.026Z,17.00
2018-04-16T09:02:11.807Z,17.00
2018-04-16T09:04:40.137Z,17.00
2018-04-16T09:07:07.967Z,17.10
2018-04-16T09:09:35.763Z,17.00
2018-04-16T09:12:03.607Z,17.00
2018-04-16T09:14:31.414Z,16.90
2018-04-16T09:16:59.991Z,16.80
2018-04-16T09:19:28.597Z,16.70
2018-04-16T09:21:56.415Z,16.70
2018-04-16T09:24:25.022Z,16.70
2018-04-16T09:26:52.929Z,16.70
2018-04-16T09:29:20.724Z,16.70
2018-04-16T09:31:48.576Z,16.70
2018-04-16T09:34:16.567Z,16.70
2018-04-16T09:36:44.398Z,16.70
2018-04-16T09:39:12.214Z,16.80
2018-04-16T09:41:40.132Z,16.70
2018-04-16T09:44:07.946Z,16.80
2018-04-16T09:46:35.776Z,16.90
2018-04-16T09:49:03.685Z,16.90
2018-04-16T09:51:31.497Z,17.00
2018-04-16T09:53:59.323Z,17.10
2018-04-16T09:56:27.211Z,17.20
2018-04-16T09:58:55.031Z,17.30
2018-04-16T10:01:22.822Z,17.50
2018-04-16T10:03:50.842Z,17.60
2018-04-16T10:06:19.423Z,17.80
2018-04-16T10:08:48.006Z,17.80
2018-04-16T10:11:15.841Z,17.80
2018-04-16T10:13:43.659Z,17.80
2018-04-16T10:16:11.476Z,17.80
2018-04-16T10:18:40.089Z,17.60
2018-04-16T10:21:08.624Z,17.50
2018-04-16T10:23:36.455Z,17.50
2018-04-16T10:26:04.308Z,17.50
2018-04-16T10:28:32.119Z,17.50
2018-04-16T10:30:59.910Z,17.50
2018-04-16T10:33:28.496Z,17.80
2018-04-16T10:35:57.050Z,17.90
2018-04-16T10:38:24.828Z,17.90
2018-04-16T10:40:53.409Z,18.10
2018-04-16T10:43:21.195Z,18.10
2018-04-16T10:45:48.977Z,18.30
2018-04-16T10:48:16.800Z,18.50
2018-04-16T10:50:45.369Z,18.80
2018-04-16T10:53:13.134Z,18.80
2018-04-16T10:55:40.980Z,18.90
2018-04-16T10:58:09.532Z,19.00
2018-04-16T11:00:37.309Z,19.00
2018-04-16T11:03:05.196Z,19.20
2018-04-16T11:05:32.981Z,19.40
2018-04-16T11:08:01.543Z,20.00
2018-04-16T11:10:29.412Z,20.00
2018-04-16T11:12:57.217Z,20.50
2018-04-16T11:15:25.008Z,20.90
2018-04-16T11:17:52.828Z,21.20
2018-04-16T11:20:21.489Z,21.70
2018-04-16T11:22:50.053Z,21.80
2018-04-16T11:25:17.889Z,21.80
2018-04-16T11:27:45.694Z,21.90
2018-04-16T11:30:13.528Z,21.90
2018-04-16T11:32:41.374Z,22.20
2018-04-16T11:35:09.134Z,22.30
2018-04-16T11:37:36.925Z,22.10
2018-04-16T11:40:04.775Z,22.10
2018-04-16T11:42:32.612Z,22.20
2018-04-16T11:45:00.420Z,22.50
2018-04-16T11:47:28.268Z,22.70
2018-04-16T11:49:56.135Z,22.20
2018-04-16T11:52:23.940Z,22.00
2018-04-16T11:54:52.540Z,21.80
2018-04-16T11:57:20.309Z,21.80
2018-04-16T11:59:48.067Z,21.90
2018-04-16T12:02:15.956Z,22.30
2018-04-16T12:04:44.526Z,22.50
2018-04-16T12:07:12.337Z,22.50
2018-04-16T12:09:41.007Z,22.80
2018-04-16T12:12:08.793Z,22.80
2018-04-16T12:14:37.356Z,23.30
2018-04-16T12:17:05.185Z,23.30
2018-04-16T12:19:33.022Z,23.20
2018-04-16T12:22:01.746Z,23.00
2018-04-16T12:24:29.672Z,22.90
2018-04-16T12:26:57.801Z,22.70
2018-04-16T12:29:25.616Z,22.50
2018-04-16T12:31:53.849Z,22.60
2018-04-16T12:34:22.433Z,22.70
2018-04-16T12:36:51.002Z,22.70
2018-04-16T12:39:18.876Z,22.70
2018-04-16T12:41:47.440Z,22.90
2018-04-16T12:44:15.901Z,22.90
2018-04-16T12:46:43.749Z,22.90
2018-04-16T12:49:11.550Z,22.90
2018-04-16T12:51:39.401Z,22.90
2018-04-16T12:54:07.323Z,22.90
2018-04-16T12:56:35.106Z,22.90
2018-04-16T12:59:02.954Z,22.90
2018-04-16T13:01:30.846Z,23.00
2018-04-16T13:03:58.748Z,23.00
2018-04-16T13:06:26.543Z,23.20
2018-04-16T13:08:54.413Z,23.30
2018-04-16T13:11:22.204Z,23.30
2018-04-16T13:13:50.022Z,23.30
2018-04-16T13:16:17.914Z,23.20
2018-04-16T13:18:46.536Z,22.90
2018-04-16T13:21:14.334Z,22.80
2018-04-16T13:23:42.209Z,22.60
2018-04-16T13:26:10.046Z,22.40
2018-04-16T13:28:38.603Z,22.10
2018-04-16T13:31:07.247Z,22.00
2018-04-16T13:33:35.064Z,22.00
2018-04-16T13:36:03.653Z,22.30
2018-04-16T13:38:33.224Z,22.20
2018-04-16T13:41:01.096Z,22.20
2018-04-16T13:43:28.983Z,22.20
2018-04-16T13:45:57.474Z,22.20
2018-04-16T13:48:25.607Z,22.30
2018-04-16T13:50:53.421Z,22.40
2018-04-16T13:53:21.365Z,22.50
2018-04-16T13:55:49.905Z,22.50
2018-04-16T13:58:18.461Z,22.50
2018-04-16T14:00:47.268Z,22.40
2018-04-16T14:03:16.586Z,22.40
2018-04-16T14:05:45.137Z,22.20
2018-04-16T14:08:12.989Z,22.20
2018-04-16T14:10:41.869Z,22.00
2018-04-16T14:13:09.869Z,22.10
2018-04-16T14:15:37.743Z,22.20
2018-04-16T14:18:05.576Z,22.20
2018-04-16T14:20:33.400Z,22.10
2018-04-16T14:23:01.253Z,22.00
2018-04-16T14:25:29.806Z,21.90
2018-04-16T14:27:57.688Z,21.90
2018-04-16T14:30:25.637Z,21.90
2018-04-16T14:32:53.468Z,21.90
2018-04-16T14:35:21.352Z,21.70
2018-04-16T14:37:49.242Z,21.50
2018-04-16T14:40:17.106Z,21.30
2018-04-16T14:42:44.907Z,21.20
2018-04-16T14:45:12.836Z,21.20
2018-04-16T14:47:41.360Z,21.10
2018-04-16T14:50:09.254Z,21.10
2018-04-16T14:52:37.163Z,21.20
2018-04-16T14:55:05.756Z,21.10
2018-04-16T14:57:34.380Z,21.00
2018-04-16T15:00:20.038Z,21.00
2018-04-16T15:02:47.878Z,21.00
2018-04-16T15:05:16.474Z,21.00
2018-04-16T15:07:44.400Z,21.00
2018-04-16T15:10:13.115Z,20.90
2018-04-16T15:12:40.984Z,20.90
2018-04-16T15:15:09.217Z,21.00
2018-04-16T15:17:37.099Z,21.00
2018-04-16T15:20:06.097Z,21.00
2018-04-16T15:22:34.078Z,21.00
2018-04-16T15:25:02.172Z,21.00
2018-04-16T15:27:30.072Z,21.10
2018-04-16T15:29:58.775Z,21.10
2018-04-16T15:32:26.671Z,21.00
2018-04-16T15:34:55.018Z,20.90
2018-04-16T15:37:22.988Z,20.80
2018-04-16T15:39:50.945Z,20.80
2018-04-16T15:42:18.841Z,20.90
2018-04-16T15:44:46.722Z,20.90
2018-04-16T15:47:14.541Z,20.90
2018-04-16T15:49:43.629Z,21.00
2018-04-16T15:52:12.244Z,21.00
2018-04-16T15:54:40.792Z,20.90
2018-04-16T15:57:09.391Z,20.90
2018-04-16T15:59:37.998Z,20.80
2018-04-16T16:02:05.815Z,20.80
2018-04-16T16:04:34.426Z,20.70
2018-04-16T16:07:03.112Z,20.60
2018-04-16T16:09:30.899Z,20.60
2018-04-16T16:11:58.721Z,20.60
2018-04-16T16:14:26.637Z,20.50
2018-04-16T16:16:54.455Z,20.40
2018-04-16T16:19:22.311Z,20.40
2018-04-16T16:21:51.286Z,20.30
2018-04-16T16:24:19.045Z,20.30
2018-04-16T16:26:46.817Z,20.30
2018-04-16T16:29:14.651Z,20.20
2018-04-16T16:31:42.444Z,20.20
2018-04-16T16:34:10.231Z,20.00
2018-04-16T16:36:38.082Z,19.60
2018-04-16T16:39:06.680Z,18.80
2018-04-16T16:41:34.652Z,18.80
2018-04-16T16:44:02.499Z,18.40
2018-04-16T16:46:31.037Z,17.80
2018-04-16T16:48:58.826Z,17.80
2018-04-16T16:51:27.443Z,17.40
2018-04-16T16:53:55.195Z,17.40
2018-04-16T16:56:22.997Z,17.40
2018-04-16T16:58:50.832Z,17.30
2018-04-16T17:01:18.600Z,17.10
2018-04-16T17:03:46.417Z,16.90
2018-04-16T17:06:14.246Z,16.80
2018-04-16T17:08:42.035Z,16.80
2018-04-16T17:11:09.804Z,16.70
2018-04-16T17:13:37.610Z,16.60
2018-04-16T17:16:05.430Z,16.60
2018-04-16T17:18:33.242Z,16.50
2018-04-16T17:21:01.062Z,16.40
2018-04-16T17:23:29.604Z,16.20
2018-04-16T17:25:57.452Z,16.20
2018-04-16T17:28:25.523Z,16.20
2018-04-16T17:30:53.371Z,16.00
2018-04-16T17:33:21.141Z,15.90
2018-04-16T17:35:48.945Z,15.90
2018-04-16T17:38:16.963Z,15.80
2018-04-16T17:40:47.540Z,15.80
2018-04-16T17:43:15.507Z,15.70
2018-04-16T17:45:43.285Z,15.70
2018-04-16T17:48:11.061Z,15.70
2018-04-16T17:50:39.709Z,15.60
2018-04-16T17:53:07.492Z,15.60
2018-04-16T17:55:35.288Z,15.50
2018-04-16T17:58:03.159Z,15.50
2018-04-16T18:00:30.962Z,15.50
2018-04-16T18:02:58.968Z,15.30
2018-04-16T18:05:27.657Z,15.30
2018-04-16T18:07:55.432Z,15.30
2018-04-16T18:10:23.196Z,15.40
2018-04-16T18:12:51.011Z,15.40
2018-04-16T18:15:18.774Z,15.40
2018-04-16T18:17:46.533Z,15.30
2018-04-16T18:20:14.514Z,15.30
2018-04-16T18:22:42.461Z,15.30
2018-04-16T18:25:10.983Z,15.20
2018-04-16T18:27:38.792Z,15.20
2018-04-16T18:30:06.566Z,15.10
2018-04-16T18:32:34.335Z,15.10
2018-04-16T18:35:02.173Z,15.10
2018-04-16T18:37:29.964Z,15.00
2018-04-16T18:39:57.722Z,15.10
2018-04-16T18:42:25.532Z,15.10
2018-04-16T18:44:53.307Z,15.10
2018-04-16T18:47:21.068Z,15.00
2018-04-16T18:49:48.876Z,15.00
2018-04-16T18:52:16.625Z,15.00
2018-04-16T18:54:44.391Z,15.00
2018-04-16T18:57:12.206Z,15.00
2018-04-16T18:59:39.985Z,15.00
2018-04-16T19:02:07.737Z,14.90
2018-04-16T19:04:35.579Z,14.80
2018-04-16T19:07:04.113Z,14.80
2018-04-16T19:09:31.890Z,14.80
2018-04-16T19:11:59.759Z,14.80
2018-04-16T19:14:28.292Z,14.80
2018-04-16T19:16:56.083Z,14.80
2018-04-16T19:19:23.978Z,14.80
2018-04-16T19:21:54.417Z,14.80
2018-04-16T19:24:23.027Z,14.80
2018-04-16T19:26:56.588Z,14.80
2018-04-16T19:29:25.723Z,14.90
2018-04-16T19:31:54.190Z,14.90
2018-04-16T19:34:27.585Z,14.90
2018-04-16T19:36:55.351Z,15.00
2018-04-16T19:39:23.297Z,14.90
2018-04-16T19:41:56.838Z,14.80
2018-04-16T19:44:24.609Z,14.80
2018-04-16T19:46:52.366Z,14.80
2018-04-16T19:49:25.764Z,14.80
2018-04-16T19:51:53.532Z,14.80
2018-04-16T19:54:21.295Z,14.70
2018-04-16T19:56:54.665Z,14.70
2018-04-16T19:59:22.424Z,14.70
2018-04-16T20:01:55.963Z,14.60
2018-04-16T20:04:24.492Z,14.60
2018-04-16T20:06:52.238Z,14.60
2018-04-16T20:09:20.047Z,14.60
2018-04-16T20:11:47.806Z,14.50
2018-04-16T20:14:15.588Z,14.50
2018-04-16T20:16:43.388Z,14.50
2018-04-16T20:19:11.145Z,14.50
2018-04-16T20:21:38.907Z,14.50
2018-04-16T20:24:06.703Z,14.50
2018-04-16T20:26:34.457Z,14.40
2018-04-16T20:29:02.213Z,14.40
2018-04-16T20:31:30.031Z,14.40
2018-04-16T20:33:58.582Z,14.40
2018-04-16T20:36:26.339Z,14.40
2018-04-16T20:38:54.165Z,14.50
2018-04-16T20:41:21.931Z,14.40
2018-04-16T20:43:49.695Z,14.40
2018-04-16T20:46:17.514Z,14.30
2018-04-16T20:48:45.305Z,14.40
2018-04-16T20:51:13.056Z,14.30
2018-04-16T20:53:41.669Z,14.20
2018-04-16T20:56:10.312Z,14.20
2018-04-16T20:58:39.289Z,14.20
2018-04-16T21:01:07.101Z,14.20
2018-04-16T21:03:34.852Z,14.20
2018-04-16T21:06:02.615Z,14.10
2018-04-16T21:08:30.477Z,14.20
2018-04-16T21:10:58.237Z,14.20
2018-04-16T21:13:26.010Z,14.20
2018-04-16T21:15:53.820Z,14.20
2018-04-16T21:18:21.588Z,14.20
2018-04-16T21:20:49.394Z,14.20
2018-04-16T21:23:17.212Z,14.20
2018-04-16T21:25:44.973Z,14.20
2018-04-16T21:28:12.745Z,14.20
2018-04-16T21:30:41.333Z,14.20
2018-04-16T21:33:09.858Z,14.10
2018-04-16T21:35:37.648Z,14.10
2018-04-16T21:38:05.503Z,14.10
2018-04-16T21:40:34.037Z,14.10
2018-04-16T21:43:01.825Z,14.00
2018-04-16T21:45:29.676Z,14.10
2018-04-16T21:47:57.429Z,14.10
2018-04-16T21:50:25.187Z,14.00
2018-04-16T21:52:53.000Z,14.00
2018-04-16T21:55:20.793Z,14.00
2018-04-16T21:57:49.318Z,14.00
2018-04-16T22:00:17.141Z,14.00
2018-04-16T22:02:45.668Z,14.00
2018-04-16T22:05:13.427Z,13.90
2018-04-16T22:07:41.255Z,14.00
2018-04-16T22:10:09.013Z,13.90
2018-04-16T22:12:36.786Z,14.00
2018-04-16T22:15:04.633Z,13.90
2018-04-16T22:17:33.153Z,13.90
2018-04-16T22:20:00.919Z,13.90
2018-04-16T22:22:28.741Z,13.90
